Cuyahoga County Airport Cleveland US
ICAO: KCGF
IATA: CGF
Category: Medium
Scheduled Services: No

Elevation: 879 ft
TransAlt. 18000 ft.

Airport Communications:
CLEVELAND APP/DEP:125.35
CTAF:118.5
GND/CLNC DEL:121.85
COUNTY TWR:118.5
UNICOM:122.95

KCGF Zoom In..

Runways:

(A) RW 06 length 5102 ft width 100 ft
---- / hdg 57

(B) RW 24 length 5102 ft width 100 ft
ILS 111.10 / hdg 237

Location; KCGF
Day. 30 / Time. 21.45 Zulu
* Altimeter: 29.54
* Temperature: 03° c. 37.4°f.
* Wind from: 350° Speed 12 kn with Gusts up to 18 kn.
Dewpoint: 02° c.
Visibility: 5 Statute Miles.
Clouds: Overcast 800 ft.
Conditions: Light Rain.Conditions: Mist.

KCGF 302145Z 35012G18KT 5SM -RA BR OVC008 03/02 A2954

Going to: --> -->


Wind From 350°
Speed 12 kn.

 
 
jpsmedia worldairports.se 2020   terms of use